createdAt,value
2022-08-07T00:00:39.959Z,75.44
2022-08-07T00:03:07.265Z,75.95
2022-08-07T00:05:36.301Z,76.55
2022-08-07T00:08:04.968Z,77.83
2022-08-07T00:10:31.830Z,76.94
2022-08-07T00:13:01.070Z,77.61
2022-08-07T00:15:35.961Z,78.56
2022-08-07T00:18:05.299Z,78.97
2022-08-07T00:20:34.369Z,78.28
2022-08-07T00:23:02.772Z,78.85
2022-08-07T00:25:37.257Z,79.11
2022-08-07T00:28:04.376Z,76.19
2022-08-07T00:30:31.490Z,78.45
2022-08-07T00:32:58.859Z,79.54
2022-08-07T00:35:25.914Z,77.69
2022-08-07T00:37:53.176Z,78.54
2022-08-07T00:40:40.023Z,79.93
2022-08-07T00:43:09.699Z,79.79
2022-08-07T00:45:38.678Z,80.13
2022-08-07T00:48:09.436Z,80.16
2022-08-07T00:50:46.594Z,79.86
2022-08-07T00:53:17.631Z,81.07
2022-08-07T00:56:00.603Z,81.07
2022-08-07T00:58:30.070Z,79.83
2022-08-07T01:00:56.546Z,80.99
2022-08-07T01:03:54.583Z,81.64
2022-08-07T01:06:10.231Z,81.45
2022-08-07T01:08:51.251Z,80.69
2022-08-07T01:12:09.489Z,81.63
2022-08-07T01:14:07.972Z,81.26
2022-08-07T01:16:37.072Z,81.89
2022-08-07T01:19:14.827Z,81.98
2022-08-07T01:21:46.889Z,81.22
2022-08-07T01:24:14.651Z,81.52
2022-08-07T01:26:52.241Z,81.23
2022-08-07T01:29:22.462Z,80.89
2022-08-07T01:31:50.474Z,80.47
2022-08-07T01:34:20.335Z,80.39
2022-08-07T01:36:58.129Z,78.01
2022-08-07T01:39:39.585Z,77.35
2022-08-07T01:42:37.725Z,78.65
2022-08-07T01:44:54.632Z,78.64
2022-08-07T01:48:20.292Z,78.02
2022-08-07T01:50:08.611Z,78.86
2022-08-07T01:52:39.119Z,80.37
2022-08-07T01:55:22.186Z,79.87
2022-08-07T01:58:05.573Z,81.45
2022-08-07T02:00:35.586Z,81.47
2022-08-07T02:03:21.384Z,81.12
2022-08-07T02:05:59.622Z,82.00
2022-08-07T02:08:29.334Z,81.98
2022-08-07T02:10:59.671Z,80.03
2022-08-07T02:13:56.512Z,80.46
2022-08-07T02:16:19.913Z,80.91
2022-08-07T02:18:56.100Z,80.83
2022-08-07T02:21:24.226Z,81.69
2022-08-07T02:23:53.171Z,81.50
2022-08-07T02:26:32.759Z,81.05
2022-08-07T02:29:02.507Z,81.56
2022-08-07T02:31:31.054Z,80.18
2022-08-07T02:34:03.541Z,79.70
2022-08-07T02:36:33.819Z,80.45
2022-08-07T02:39:16.413Z,79.85
2022-08-07T02:41:54.961Z,79.79
2022-08-07T02:44:26.897Z,79.30
2022-08-07T02:46:59.913Z,81.62
2022-08-07T02:49:58.754Z,80.43
2022-08-07T02:52:21.563Z,82.07
2022-08-07T02:55:00.748Z,81.70
2022-08-07T02:57:28.713Z,82.03
2022-08-07T03:00:01.339Z,81.68
2022-08-07T03:02:32.584Z,79.58
2022-08-07T03:05:00.710Z,81.19
2022-08-07T03:08:05.301Z,81.50
2022-08-07T03:10:20.025Z,81.77
2022-08-07T03:12:51.146Z,81.97
2022-08-07T03:15:30.182Z,81.18
2022-08-07T03:18:06.459Z,82.63
2022-08-07T03:20:33.228Z,82.79
2022-08-07T03:23:02.659Z,84.39
2022-08-07T03:25:40.343Z,83.59
2022-08-07T03:28:37.763Z,82.70
2022-08-07T03:31:18.609Z,83.61
2022-08-07T03:33:48.962Z,83.67
2022-08-07T03:36:17.730Z,83.53
2022-08-07T03:38:45.568Z,83.26
2022-08-07T03:41:14.683Z,82.27
2022-08-07T03:43:56.755Z,82.06
2022-08-07T03:46:25.612Z,83.23
2022-08-07T03:49:03.144Z,83.15
2022-08-07T03:51:47.054Z,82.12
2022-08-07T03:54:36.279Z,84.13
2022-08-07T03:57:03.962Z,84.38
2022-08-07T03:59:34.083Z,84.57
2022-08-07T04:02:01.068Z,84.94
2022-08-07T04:04:28.092Z,85.43
2022-08-07T04:07:00.085Z,86.06
2022-08-07T04:09:44.867Z,85.37
2022-08-07T04:12:26.487Z,83.18
2022-08-07T04:14:57.103Z,83.73
2022-08-07T04:17:23.827Z,84.39
2022-08-07T04:20:12.239Z,84.44
2022-08-07T04:22:53.685Z,84.00
2022-08-07T04:25:29.058Z,82.73
2022-08-07T04:28:00.270Z,81.64
2022-08-07T04:30:40.208Z,80.89
2022-08-07T04:33:15.581Z,83.53
2022-08-07T04:35:50.507Z,82.35
2022-08-07T04:38:18.065Z,80.57
2022-08-07T04:40:52.816Z,78.94
2022-08-07T04:44:09.888Z,78.96
2022-08-07T04:46:40.023Z,80.46
2022-08-07T04:49:37.844Z,79.09
2022-08-07T04:52:30.240Z,79.12
2022-08-07T04:55:14.875Z,78.26
2022-08-07T04:58:26.584Z,78.50
2022-08-07T05:00:56.245Z,77.79
2022-08-07T05:04:06.743Z,77.92
2022-08-07T05:06:51.588Z,77.55
2022-08-07T05:09:45.909Z,76.59
2022-08-07T05:12:27.140Z,76.29
2022-08-07T05:15:21.609Z,76.86
2022-08-07T05:18:00.475Z,76.99
2022-08-07T05:20:32.469Z,75.89
2022-08-07T05:23:04.352Z,75.25
2022-08-07T05:26:01.928Z,74.36
2022-08-07T05:28:23.416Z,76.00
2022-08-07T05:30:56.773Z,74.51
2022-08-07T05:33:23.787Z,74.82
2022-08-07T05:35:53.363Z,74.20
2022-08-07T05:39:00.981Z,71.95
2022-08-07T05:41:16.745Z,75.55
2022-08-07T05:44:01.545Z,75.33
2022-08-07T05:46:37.640Z,75.45
2022-08-07T05:49:11.753Z,74.61
2022-08-07T05:51:40.065Z,74.66
2022-08-07T05:54:12.227Z,73.40
2022-08-07T05:56:55.391Z,71.98
2022-08-07T05:59:25.252Z,71.81
2022-08-07T06:01:57.077Z,71.59
2022-08-07T06:04:29.848Z,69.80
2022-08-07T06:07:03.711Z,69.69
2022-08-07T06:10:06.437Z,69.97
2022-08-07T06:25:10.144Z,66.37
2022-08-07T06:36:13.264Z,63.01
2022-08-07T06:46:53.249Z,59.10
2022-08-07T06:49:50.949Z,59.58
2022-08-07T06:52:31.501Z,60.26
2022-08-07T07:02:57.561Z,53.45
2022-08-07T07:06:23.950Z,54.44
2022-08-07T07:17:08.296Z,51.36
2022-08-07T07:20:21.580Z,48.78
2022-08-07T07:24:08.775Z,50.58
2022-08-07T07:26:36.931Z,45.97
2022-08-07T07:30:10.101Z,46.00
2022-08-07T07:39:54.713Z,43.17
2022-08-07T09:09:20.955Z,40.03
2022-08-07T09:16:43.843Z,40.01
2022-08-07T09:28:00.107Z,37.09
2022-08-07T10:14:00.824Z,35.27
2022-08-07T10:17:14.509Z,38.02
2022-08-07T10:46:01.121Z,36.34
2022-08-07T10:52:37.257Z,37.86
2022-08-07T11:21:06.830Z,32.34
2022-08-07T11:24:21.688Z,33.02
2022-08-07T11:27:02.190Z,36.05
2022-08-07T11:29:42.516Z,33.25
2022-08-07T11:37:06.693Z,35.95
2022-08-07T11:40:20.465Z,33.24
2022-08-07T11:43:08.899Z,33.45
2022-08-07T11:50:31.431Z,35.29
2022-08-07T11:53:01.089Z,31.87
2022-08-07T11:56:14.009Z,30.60
2022-08-07T11:59:22.164Z,31.07
2022-08-07T12:02:38.142Z,32.77
2022-08-07T12:06:39.959Z,31.73
2022-08-07T12:09:09.324Z,30.91
2022-08-07T12:12:09.414Z,30.57
2022-08-07T12:14:55.661Z,31.37
2022-08-07T12:17:34.139Z,31.98
2022-08-07T12:20:29.628Z,30.52
2022-08-07T12:24:05.800Z,31.23
2022-08-07T12:26:35.405Z,29.73
2022-08-07T12:29:38.421Z,31.64
2022-08-07T12:32:29.921Z,30.77
2022-08-07T12:35:00.995Z,30.64
2022-08-07T12:38:09.261Z,33.24
2022-08-07T12:40:47.109Z,29.54
2022-08-07T12:43:11.013Z,31.91
2022-08-07T12:46:15.791Z,30.39
2022-08-07T12:49:10.082Z,31.67
2022-08-07T12:52:13.965Z,30.08
2022-08-07T12:54:55.089Z,30.32
2022-08-07T12:57:39.267Z,31.32
2022-08-07T13:00:30.969Z,30.35
2022-08-07T13:03:26.812Z,30.83
2022-08-07T13:06:54.493Z,30.24
2022-08-07T13:10:19.770Z,30.10
2022-08-07T13:13:01.386Z,31.75
2022-08-07T13:15:59.057Z,29.68
2022-08-07T13:18:49.156Z,29.45
2022-08-07T13:21:51.759Z,31.21
2022-08-07T13:24:29.164Z,30.62
2022-08-07T13:27:05.454Z,31.14
2022-08-07T13:29:59.169Z,31.08
2022-08-07T13:32:31.695Z,29.52
2022-08-07T13:35:21.420Z,29.75
2022-08-07T13:38:01.835Z,31.03
2022-08-07T13:40:42.411Z,29.34
2022-08-07T13:43:17.541Z,28.94
2022-08-07T13:46:11.226Z,28.66
2022-08-07T13:48:59.470Z,28.73
2022-08-07T13:52:05.051Z,29.93
2022-08-07T13:54:37.982Z,31.09
2022-08-07T13:57:24.245Z,29.17
2022-08-07T14:00:00.378Z,28.51
2022-08-07T14:02:39.557Z,29.03
2022-08-07T14:05:14.336Z,29.92
2022-08-07T14:08:00.788Z,29.40
2022-08-07T14:10:43.524Z,28.96
2022-08-07T14:13:16.097Z,29.20
2022-08-07T14:15:53.504Z,31.34
2022-08-07T14:18:39.795Z,31.88
2022-08-07T14:22:01.788Z,31.56
2022-08-07T14:24:22.999Z,32.69
2022-08-07T14:26:57.675Z,29.25
2022-08-07T14:30:05.354Z,29.93
2022-08-07T14:32:25.012Z,29.58
2022-08-07T14:34:53.538Z,31.49
2022-08-07T14:37:23.775Z,30.18
2022-08-07T14:40:16.272Z,28.80
2022-08-07T14:42:59.980Z,31.62
2022-08-07T14:45:50.179Z,33.46
2022-08-07T14:48:20.376Z,32.17
2022-08-07T14:50:51.001Z,32.01
2022-08-07T14:54:05.532Z,34.40
2022-08-07T14:56:13.180Z,34.93
2022-08-07T14:58:54.178Z,36.58
2022-08-07T15:01:42.714Z,36.39
2022-08-07T15:04:18.840Z,36.69
2022-08-07T15:06:47.750Z,36.85
2022-08-07T15:09:57.233Z,37.06
2022-08-07T15:12:10.268Z,38.53
2022-08-07T15:15:07.683Z,37.97
2022-08-07T15:17:54.638Z,37.18
2022-08-07T15:20:33.130Z,40.49
2022-08-07T15:23:20.247Z,38.45
2022-08-07T15:26:03.394Z,38.70
2022-08-07T15:32:00.470Z,38.88
2022-08-07T15:34:15.111Z,40.28
2022-08-07T15:39:57.927Z,37.59
2022-08-07T15:42:47.916Z,36.88
2022-08-07T15:45:21.710Z,36.15
2022-08-07T15:48:13.229Z,34.81
2022-08-07T15:51:02.083Z,32.49
2022-08-07T15:53:52.165Z,32.49
2022-08-07T15:56:24.692Z,31.95
2022-08-07T15:59:04.073Z,31.24
2022-08-07T16:01:39.267Z,30.19
2022-08-07T16:04:15.323Z,31.11
2022-08-07T16:06:51.957Z,30.10
2022-08-07T16:09:41.997Z,29.79
2022-08-07T16:12:28.880Z,31.06
2022-08-07T16:15:57.738Z,30.23
2022-08-07T16:18:49.984Z,29.64
2022-08-07T16:22:17.933Z,30.64
2022-08-07T16:25:54.491Z,31.75
2022-08-07T16:30:05.841Z,33.07
2022-08-07T16:31:58.222Z,32.98
2022-08-07T16:34:52.294Z,32.00
2022-08-07T16:38:06.046Z,30.98
2022-08-07T16:41:01.907Z,33.60
2022-08-07T16:44:05.577Z,33.91
2022-08-07T16:47:02.978Z,35.35
2022-08-07T16:50:28.843Z,34.64
2022-08-07T16:54:01.444Z,34.54
2022-08-07T17:00:16.467Z,32.72
2022-08-07T17:03:58.233Z,36.10
2022-08-07T17:06:45.353Z,35.44
2022-08-07T17:10:07.381Z,33.47
2022-08-07T17:20:23.177Z,36.08
2022-08-07T17:23:14.863Z,36.41
2022-08-07T17:26:00.142Z,36.48
2022-08-07T17:34:08.646Z,36.81
2022-08-07T17:35:58.851Z,37.69
2022-08-07T17:38:37.284Z,39.13
2022-08-07T17:42:07.481Z,41.40
2022-08-07T17:44:50.546Z,42.16
2022-08-07T17:47:53.936Z,43.32
2022-08-07T17:50:34.130Z,42.58
2022-08-07T17:54:00.407Z,43.55
2022-08-07T17:56:28.604Z,41.83
2022-08-07T17:58:56.929Z,42.51
2022-08-07T18:01:36.839Z,41.78
2022-08-07T18:21:02.499Z,42.45
2022-08-07T18:23:42.314Z,45.07
2022-08-07T21:13:43.906Z,56.36
2022-08-07T21:56:16.726Z,58.99
2022-08-07T21:59:30.321Z,60.81
2022-08-07T22:06:30.598Z,60.22
2022-08-07T22:12:57.759Z,60.29
2022-08-07T22:18:59.532Z,61.61
2022-08-07T22:22:40.074Z,62.88
2022-08-07T22:32:46.654Z,62.77
2022-08-07T22:35:25.331Z,62.43
2022-08-07T22:38:25.593Z,63.06
2022-08-07T22:41:07.566Z,62.60
2022-08-07T22:44:04.710Z,62.01
2022-08-07T22:47:11.316Z,63.42
2022-08-07T22:50:20.905Z,62.53
2022-08-07T22:54:05.375Z,64.08
2022-08-07T23:04:36.108Z,62.96
2022-08-07T23:07:44.287Z,64.08
2022-08-07T23:10:42.584Z,63.66
2022-08-07T23:14:10.837Z,63.63
2022-08-07T23:17:08.621Z,62.72
2022-08-07T23:20:51.915Z,62.41
2022-08-07T23:24:06.781Z,64.86
2022-08-07T23:26:25.293Z,64.92
2022-08-07T23:30:36.362Z,64.51
2022-08-07T23:34:21.200Z,64.28
2022-08-07T23:36:10.701Z,64.26
2022-08-07T23:38:55.819Z,65.60
2022-08-07T23:42:02.079Z,66.40
2022-08-07T23:44:45.461Z,64.90
2022-08-07T23:47:42.456Z,64.73
2022-08-07T23:50:33.662Z,63.22
2022-08-07T23:53:51.752Z,64.31
2022-08-07T23:56:53.961Z,64.33
